Gulf Breeze, FL (32561)

7:05 AM CDT on March 24, 2017 (GMT -0500)
Villa Venyce | | Change Station
Active Advisory: Coastal Hazard Statement Active Notice: Coastal Hazard Statement

Elev 36 ft 30.38 °N, 87.11 °W | Updated 10 seconds ago

Overcast
Overcast
66.0 °F
Feels Like 66.0 °F
N
2.7
Wind Variable Wind from East
Gusts 4.0 mph

Today
High -- | Low -- °F
--% Chance of Precip.
Yesterday
High -- | Low -- °F
Precip. -- in
Pressure 30.30 in
Visibility 10.0 miles
Clouds Mostly Cloudy 1800 ft
Overcast 2200 ft
Dew Point 63 °F
Humidity 90%
Rainfall 0.00 in
Snow Depth Not available.
6:47 AM 7:02 PM
Waning Crescent, 15% visible
METAR KPNS 241153Z 11011G20KT 10SM BKN018 OVC022 19/16 A3029 RMK AO2 SLP259 T01940156 10217 20194 53014
Pressure 30.30 in
Visibility 10.0 miles
Clouds Mostly Cloudy 1800 ft
Overcast 2200 ft
Dew Point 63 °F
Humidity 90%
Rainfall 0.00 in
Snow Depth Not available.
6:47 AM 7:02 PM
Waning Crescent, 15% visible
METAR KPNS 241153Z 11011G20KT 10SM BKN018 OVC022 19/16 A3029 RMK AO2 SLP259 T01940156 10217 20194 53014

Get Your Daily Forecast Email!

Thanks for signing up!

Be on the lookout for a verification email in your inbox.

You'll start receiving severe weather alerts in your inbox..

×

10-Day Weather Forecast

Almanac

Astronomy

Mar. 24, 2017 Rise Set
Actual Time
Civil Twilight
Nautical Twilight
Astronomical Twilight
Moon
Length of Visible Light
Length of Day
Tomorrow will be .
, % of the Moon is Illuminated

Today's Extremes

State Highs State Lows

Community

WunderPhotos

Upload Photos

1,962,540 photos uploaded!

WunderBlog® & News

Nearby

Air Quality

  Air Quality AQ Index Pollutant
Not available.

Snow Depth

Station Depth Elevation

Earthquake Activity

City Distance Mag. Time & Date
Minimum magnitude displayed is 2.5.

Earthquake Activity

City Distance Mag. Time & Date
Minimum magnitude displayed is 2.5.

Coastal Water Temperatures

Place Temperature

Stations

Nearby Weather Stations

Station Location Temp. Windchill Dew Point Humidity Wind Precip. Elev Updated Type
                   

Watches & Warnings

Coastal Hazard Statement
Issued: 4:44 AM CDT Mar. 24, 2017 – National Weather Service

... High rip current risk in effect through late Saturday night...

The National Weather Service in Mobile has issued a high rip
current risk, which is in effect through late Saturday night.

* Impacts... frequent life-threatening rip currents are expected.
The surf is dangerous for all levels of swimmers...

Precautionary/preparedness actions...

There is a high risk of rip currents. Rip currents are life-
threatening to anyone entering the surf. Swim near a lifeguard.
If caught in a rip current remain calm. Don't fight the current.
Swim in a direction following the shoreline. If unable to
escape, face the shore and call or wave for help. If tired,
float or tread water until out of the rip current.